Aérodrome :
LOGIN :

S'inscrire | Disclaimer

   EN    FR    IT 

 










Légende :    VFR   VFR Marginal   IFR   IFR Intensif   IFR Très Intensif
Visi : 
Plafond : 
>= 8 km
>= 3000ft
5 à 8 km
1000 à 3000 ft
1500m à 5 km
500 à 1000 ft
800 à 1500m
200 à 500 ft
< 800m
< 200 ft
Symboles :   Orages  Brouillard  Fortes neiges  Fortes précipitations  Vent > 20 kt
SIGMETs :   Divers  Orages  Givrage  Turbulence  Onde Orograph.  Cendres Volcan.






- Altitude de l'aérodrome : 195 ft


LFMY - Salon de Provence

DERNIER METAR :
  • 201130Z AUTO 35007KT 330V030 CAVOK 06/M01 Q1033 NOSIG

METARs EXPIRÉS :
  • 201100Z AUTO 35010KT CAVOK 05/M01 Q1033 NOSIG
  • 201030Z AUTO 35013KT 330V040 CAVOK 05/M01 Q1033 NOSIG
  • 201000Z AUTO 35009KT CAVOK 05/M01 Q1033 NOSIG
  • 200930Z AUTO 34012KT CAVOK 04/M01 Q1033 NOSIG
  • 200900Z AUTO 34013KT CAVOK 04/M01 Q1033 NOSIG

TAF TAF LFMY
Valide du 20 à 09h jusqu'au 21 à 09h UTC


200800Z 2009/2109 35008KT CAVOK
FM202100 07015KT 9999 BKN040
TEMPO 2021/2103 RA



MET'MAP, la Météo Aéronautique d'un coup d'oeil ! - Copyright ORBIFLY Décembre 2007 - Disclaimer

ORBIFLY MET'MAP TEAM :

Programmation & Développement : Alexandra Zaïnal
Sur une idée originale de : Baudouin d'Aumeries
Assistance à la programmation : Marc-Olivier Méhu
Soutien technique & logistique : Manuel Goepfert

Contact : metmap@orbifly.com




SOURCES & CREDITS :

   NOAA